METAR AND TAF INFORMATION
METAR FOR LOWI
ADDS - METARS form results

(0721 UTC 23 April 2018)
Data provider http://aviationweather.gov/adds/metars/
 
METAR text: LOWI 230650Z VRB02KT 9999 FEW080 BKN110 15/07 Q1019 NOSIG
Conditions at: LOWI (INNSBRUCK AIRPOR, AT) observed 0650 UTC 23 April 2018
Temperature: 15.0°C (59°F)
Dewpoint: 7.0°C (45°F) [RH = 59%]
Pressure (altimeter): 30.09 inches Hg (1019.0 mb)
Winds: variable direction winds at 2 MPH (2 knots; 1.0 m/s)
Visibility: 6 or more miles (10+ km)
Ceiling: 11000 feet AGL
Clouds: few clouds at 8000 feet AGL
broken clouds at 11000 feet AGL
Weather: no significant weather observed at this time

Forecast for: LOWI (INNSBRUCK AIRPOR, AT)
Text: TAF LOWI 230515Z 2306/2406 27005KT 9999 SCT100 SCT300 TX25/2313Z TN12/2306Z
Forecast period: 0600 to 0900 UTC 23 April 2018
Forecast type: FROM: standard forecast or significant change
Winds: from the W (270 degrees) at 6 MPH (5 knots; 2.6 m/s)
Visibility: 6 or more miles (10+ km)
Clouds: scattered clouds at 10000 feet AGL
scattered clouds at 30000 feet AGL
Weather: no significant weather forecast for this period
Forecast for: LOWI (INNSBRUCK AIRPOR, AT)
Text: TAF LOWI 230515Z 2306/2406 27005KT 9999 SCT100 SCT300 TX25/2313Z TN12/2306Z
Forecast period: 0600 to 0900 UTC 23 April 2018
Forecast type: FROM: standard forecast or significant change
Winds: from the W (270 degrees) at 6 MPH (5 knots; 2.6 m/s)
Visibility: 6 or more miles (10+ km)
Clouds: scattered clouds at 10000 feet AGL
scattered clouds at 30000 feet AGL
Weather: no significant weather forecast for this period
Forecast for: LOWI (INNSBRUCK AIRPOR, AT)
Text: TAF LOWI 230515Z 2306/2406 27005KT 9999 SCT100 SCT300 TX25/2313Z TN12/2306Z
Forecast period: 0900 to 2000 UTC 23 April 2018
Forecast type: BECOMING: Conditions expected to become as follows by 1100 UTC 23 April 2018
Winds: from the E (90 degrees) at 8 MPH (7 knots; 3.6 m/s)
Visibility: 6 or more miles (10+ km)
Clouds: scattered clouds at 7000 feet AGL
few clouds at 7000 feet AGL
Weather: no significant weather forecast for this period
Forecast for: LOWI (INNSBRUCK AIRPOR, AT)
Text: TAF LOWI 230515Z 2306/2406 27005KT 9999 SCT100 SCT300 TX25/2313Z TN12/2306Z
Forecast period: 0900 to 2000 UTC 23 April 2018
Forecast type: BECOMING: Conditions expected to become as follows by 1100 UTC 23 April 2018
Winds: from the E (90 degrees) at 8 MPH (7 knots; 3.6 m/s)
Visibility: 6 or more miles (10+ km)
Clouds: scattered clouds at 7000 feet AGL
few clouds at 7000 feet AGL
Weather: no significant weather forecast for this period
Forecast for: LOWI (INNSBRUCK AIRPOR, AT)
Text: TAF LOWI 230515Z 2306/2406 27005KT 9999 SCT100 SCT300 TX25/2313Z TN12/2306Z
Forecast period: 1300 to 2000 UTC 23 April 2018
Forecast type: TEMPORARY: The following changes expected for less than half the time period
Winds: from the W (270 degrees) at 17 MPH (15 knots; 7.8 m/s)
gusting to 29 MPH (25 knots; 13.0 m/s)
Visibility: 4 miles (6 km)
Ceiling: 7000 feet AGL
Clouds: scattered clouds at 5000 feet AGL
broken clouds at 7000 feet AGL
Weather: TSRA  (rain associated with thunderstorm(s))
Forecast for: LOWI (INNSBRUCK AIRPOR, AT)
Text: TAF LOWI 230515Z 2306/2406 27005KT 9999 SCT100 SCT300 TX25/2313Z TN12/2306Z
Forecast period: 1300 to 2000 UTC 23 April 2018
Forecast type: TEMPORARY: The following changes expected for less than half the time period
Winds: from the W (270 degrees) at 17 MPH (15 knots; 7.8 m/s)
gusting to 29 MPH (25 knots; 13.0 m/s)
Visibility: 4 miles (6 km)
Ceiling: 7000 feet AGL
Clouds: scattered clouds at 5000 feet AGL
broken clouds at 7000 feet AGL
Weather: TSRA  (rain associated with thunderstorm(s))
Forecast for: LOWI (INNSBRUCK AIRPOR, AT)
Text: TAF LOWI 230515Z 2306/2406 27005KT 9999 SCT100 SCT300 TX25/2313Z TN12/2306Z
Forecast period: 2000 UTC 23 April 2018 to 0600 UTC 24 April 2018
Forecast type: BECOMING: Conditions expected to become as follows by 2200 UTC 23 April 2018
Winds: from the W (270 degrees) at 6 MPH (5 knots; 2.6 m/s)
Visibility: 6 or more miles (10+ km)
Ceiling: 7000 feet AGL
Clouds: broken clouds at 7000 feet AGL
Weather: -SHRA  (light rain showers)
Forecast for: LOWI (INNSBRUCK AIRPOR, AT)
Text: TAF LOWI 230515Z 2306/2406 27005KT 9999 SCT100 SCT300 TX25/2313Z TN12/2306Z
Forecast period: 2000 UTC 23 April 2018 to 0600 UTC 24 April 2018
Forecast type: BECOMING: Conditions expected to become as follows by 2200 UTC 23 April 2018
Winds: from the W (270 degrees) at 6 MPH (5 knots; 2.6 m/s)
Visibility: 6 or more miles (10+ km)
Ceiling: 7000 feet AGL
Clouds: broken clouds at 7000 feet AGL
Weather: -SHRA  (light rain showers)
Forecast for: LOWI (INNSBRUCK AIRPOR, AT)
Text: TAF LOWI 230515Z 2306/2406 27005KT 9999 SCT100 SCT300 TX25/2313Z TN12/2306Z
Forecast period: 2000 UTC 23 April 2018 to 0200 UTC 24 April 2018
Forecast type: TEMPORARY: The following changes expected for less than half the time period
Winds: from the W (270 degrees) at 12 MPH (10 knots; 5.2 m/s)
Ceiling: 5000 feet AGL
Clouds: scattered clouds at 3000 feet AGL
broken clouds at 5000 feet AGL
Weather: SHRA  (rain showers)
Forecast for: LOWI (INNSBRUCK AIRPOR, AT)
Text: TAF LOWI 230515Z 2306/2406 27005KT 9999 SCT100 SCT300 TX25/2313Z TN12/2306Z
Forecast period: 2000 UTC 23 April 2018 to 0200 UTC 24 April 2018
Forecast type: TEMPORARY: The following changes expected for less than half the time period
Winds: from the W (270 degrees) at 12 MPH (10 knots; 5.2 m/s)
Ceiling: 5000 feet AGL
Clouds: scattered clouds at 3000 feet AGL
broken clouds at 5000 feet AGL
Weather: SHRA  (rain showers)

 AIRPORT MAP

 RUNWAY INFORMATION
Runway 08 Runway length 6562 ft Runway width 148 ft
Runway elevation 1906 ft Runway displaced threshold 339 ft Runway heading 81
Runway 26 Runway length 6562 ft Runway width 148 ft
Runway elevation 1893 ft Runway displaced threshold 198 ft Runway heading 261

 AIRPORT FREQUENCIES
Type APP Name APP Frequency 119.275 MHZ
Type ATIS Name ATIS Frequency 126.025 MHZ
Type GND Crew Name Frequency 121.8 MHZ
Type GND Crew Name Frequency 121.9 MHZ
Type TWR Name TWR Frequency 120.1 MHZ

 AIRPORT NEAR NAVIGATION AIDS
Type NDB Name Innsbruck Frequency 420 KHZ
Type NDB Name Kuhtai Frequency 413 KHZ



Air Greece virtual AIrline - All rights reserved 2018 - Powered by Virtual Airlines Manager [v2.6.2]